Time;durP1;ratioP1;P1;durP2;ratioP2;P2;SDS_P1;SDS_P2;PMS_P1;PMS_P2;Temp;Humidity;BMP_temperature;BMP_pressure;BME280_temperature;BME280_humidity;BME280_pressure;Samples;Min_cycle;Max_cycle;Signal;HPM_P1;HPM_P2
2021/10/22 00:01:34;;;;;;;;;;;;;;;-144.51;100.00;69251.94;4882947;29;19920;-62
2021/10/22 00:04:18;;;;;;;;;;;;;;;-144.51;100.00;69251.94;4882635;29;19915;-62
2021/10/22 00:07:03;;;;;;;;;;;;;;;-144.51;100.00;69251.94;4882807;29;19920;-62
2021/10/22 00:09:48;;;;;;;;;;;;;;;-144.51;100.00;69251.94;4882529;29;19915;-62
2021/10/22 00:12:33;;;;;;;;;;;;;;;-144.51;100.00;69251.94;4882726;29;19915;-62
2021/10/22 00:15:18;;;;;;;;;;;;;;;-144.51;100.00;69251.94;4882675;29;20388;-62
2021/10/22 00:18:02;;;;;;;;;;;;;;;-144.51;100.00;69251.94;4882242;29;20380;-61
2021/10/22 00:20:50;;;;;;;;;;;;;;;-144.51;100.00;69251.94;4882439;29;19919;-61
2021/10/22 00:23:34;;;;;;;;;;;;;;;-144.51;100.00;69251.94;4882366;29;19915;-61
2021/10/22 00:26:19;;;;;;;;;;;;;;;-144.51;100.00;69251.94;4881599;29;19916;-60
2021/10/22 00:29:05;;;;;;;;;;;;;;;-144.51;100.00;69251.94;4881814;29;19915;-61
2021/10/22 00:31:49;;;;;;;;;;;;;;;-144.51;100.00;69251.94;4881789;29;19915;-61
2021/10/22 00:34:33;;;;;;;;;;;;;;;-144.51;100.00;69251.94;4882060;29;19916;-61
2021/10/22 00:37:18;;;;;;;;;;;;;;;-144.51;100.00;69251.94;4881693;29;19916;-61
2021/10/22 00:40:04;;;;;;;;;;;;;;;-144.51;100.00;69251.94;4881988;29;20454;-61
2021/10/22 00:42:49;;;;;;;;;;;;;;;-144.51;100.00;69251.94;4881781;29;19916;-61
2021/10/22 00:45:34;;;;;;;;;;;;;;;-144.51;100.00;69251.94;4883069;29;19916;-61
2021/10/22 00:48:19;;;;;;;;;;;;;;;-144.51;100.00;69251.94;4882933;29;19916;-61
2021/10/22 00:51:07;;;;;;;;;;;;;;;-144.51;100.00;69251.94;4882882;29;19915;-61
2021/10/22 00:53:51;;;;;;;;;;;;;;;-144.51;100.00;69251.94;4882761;29;20546;-61
2021/10/22 00:56:36;;;;;;;;;;;;;;;-144.51;100.00;69251.94;4882913;29;19915;-61
2021/10/22 00:59:20;;;;;;;;;;;;;;;-144.51;100.00;69251.94;4882826;29;19915;-61
2021/10/22 01:02:05;;;;;;;;;;;;;;;-144.51;100.00;69251.94;4883116;29;20288;-61
2021/10/22 01:04:50;;;;;;;;;;;;;;;-144.51;100.00;69251.94;4882466;29;19916;-61
2021/10/22 01:07:37;;;;;;;;;;;;;;;-144.51;100.00;69251.94;4883520;29;19916;-61
2021/10/22 01:10:23;;;;;;;;;;;;;;;-144.51;100.00;69251.94;4882842;29;19919;-61
2021/10/22 01:13:07;;;;;;;;;;;;;;;-144.51;100.00;69251.94;4883127;29;19915;-61
2021/10/22 01:15:52;;;;;;;;;;;;;;;-144.51;100.00;69251.94;4883369;29;19920;-61
2021/10/22 01:18:37;;;;;;;;;;;;;;;-144.51;100.00;69251.94;4883174;29;19915;-61
2021/10/22 01:21:21;;;;;;;;;;;;;;;-144.51;100.00;69251.94;4882852;29;19916;-61
2021/10/22 01:24:06;;;;;;;;;;;;;;;-144.51;100.00;69251.94;4882346;29;19916;-61
2021/10/22 01:26:50;;;;;;;;;;;;;;;-144.51;100.00;69251.94;4882484;29;20367;-61
2021/10/22 01:29:35;;;;;;;;;;;;;;;-144.51;100.00;69251.94;4881684;29;19915;-61
2021/10/22 01:32:19;;;;;;;;;;;;;;;-144.51;100.00;69251.94;4882769;29;19915;-61
2021/10/22 01:35:06;;;;;;;;;;;;;;;-144.51;100.00;69251.94;4883052;29;19915;-61
2021/10/22 01:37:51;;;;;;;;;;;;;;;-144.51;100.00;69251.94;4881981;29;19916;-61
2021/10/22 01:40:35;;;;;;;;;;;;;;;-144.51;100.00;69251.94;4882627;29;19920;-61
2021/10/22 01:43:21;;;;;;;;;;;;;;;-144.51;100.00;69251.94;4889020;29;20355;-61
2021/10/22 01:46:06;;;;;;;;;;;;;;;-144.51;100.00;69251.94;4882897;29;19916;-61
2021/10/22 01:48:50;;;;;;;;;;;;;;;-144.51;100.00;69251.94;4884322;29;19916;-61
2021/10/22 01:51:35;;;;;;;;;;;;;;;-144.51;100.00;69251.94;4884180;29;19915;-61
2021/10/22 01:54:19;;;;;;;;;;;;;;;-144.51;100.00;69251.94;4882906;29;19916;-61
2021/10/22 01:57:05;;;;;;;;;;;;;;;-144.51;100.00;69251.94;4880885;29;19916;-61
2021/10/22 01:59:50;;;;;;;;;;;;;;;-144.51;100.00;69251.94;4880748;29;19915;-61
2021/10/22 02:02:35;;;;;;;;;;;;;;;-144.51;100.00;69251.94;4881200;29;19920;-61
2021/10/22 02:05:20;;;;;;;;;;;;;;;-144.51;100.00;69251.94;4882444;29;19915;-61
2021/10/22 02:08:04;;;;;;;;;;;;;;;-144.51;100.00;69251.94;4882017;29;20379;-62
2021/10/22 02:10:49;;;;;;;;;;;;;;;-144.51;100.00;69251.94;4882101;29;20361;-61
2021/10/22 02:13:34;;;;;;;;;;;;;;;-144.51;100.00;69251.94;4881739;29;19915;-61
2021/10/22 02:16:18;;;;;;;;;;;;;;;-144.51;100.00;69251.94;4881842;29;19919;-62
2021/10/22 02:19:03;;;;;;;;;;;;;;;-144.51;100.00;69251.94;4882520;29;19919;-61
2021/10/22 02:21:47;;;;;;;;;;;;;;;-144.51;100.00;69251.94;4879246;29;19919;-62
2021/10/22 02:24:31;;;;;;;;;;;;;;;-144.51;100.00;69251.94;4879319;29;19916;-62
2021/10/22 02:27:15;;;;;;;;;;;;;;;-144.51;100.00;69251.94;4879387;29;19915;-61
2021/10/22 02:30:00;;;;;;;;;;;;;;;-144.51;100.00;69251.94;4879143;29;20375;-62
2021/10/22 02:32:45;;;;;;;;;;;;;;;-144.51;100.00;69251.94;4884433;29;19916;-62
2021/10/22 02:35:29;;;;;;;;;;;;;;;-144.51;100.00;69251.94;4879741;29;19915;-61
2021/10/22 02:38:14;;;;;;;;;;;;;;;-144.51;100.00;69251.94;4881006;29;19911;-62
2021/10/22 02:40:58;;;;;;;;;;;;;;;-144.51;100.00;69251.94;4880262;29;20291;-61
2021/10/22 02:43:43;;;;;;;;;;;;;;;-144.51;100.00;69251.94;4881268;29;19919;-61
2021/10/22 02:46:28;;;;;;;;;;;;;;;-144.51;100.00;69251.94;4881650;29;19915;-61
2021/10/22 02:49:12;;;;;;;;;;;;;;;-144.51;100.00;69251.94;4881763;29;20415;-60
2021/10/22 02:51:56;;;;;;;;;;;;;;;-144.51;100.00;69251.94;4881486;29;19915;-62
2021/10/22 02:54:42;;;;;;;;;;;;;;;-144.51;100.00;69251.94;4881817;29;19917;-61
2021/10/22 02:57:26;;;;;;;;;;;;;;;-144.51;100.00;69251.94;4885379;29;19919;-60
2021/10/22 03:00:12;;;;;;;;;;;;;;;-144.51;100.00;69251.94;4885192;29;19916;-61
2021/10/22 03:02:56;;;;;;;;;;;;;;;-144.51;100.00;69251.94;4884337;29;20307;-61
2021/10/22 03:05:42;;;;;;;;;;;;;;;-144.51;100.00;69251.94;4884087;29;19920;-60
2021/10/22 03:08:26;;;;;;;;;;;;;;;-144.51;100.00;69251.94;4883730;29;19915;-60
2021/10/22 03:11:11;;;;;;;;;;;;;;;-144.51;100.00;69251.94;4883591;29;20395;-61
2021/10/22 03:13:55;;;;;;;;;;;;;;;-144.51;100.00;69251.94;4883409;29;19915;-61
2021/10/22 03:16:42;;;;;;;;;;;;;;;-144.51;100.00;69251.94;4883467;29;19924;-61
2021/10/22 03:19:27;;;;;;;;;;;;;;;-144.51;100.00;69251.94;4882813;29;19916;-61
2021/10/22 03:22:12;;;;;;;;;;;;;;;-144.51;100.00;69251.94;4883156;29;19924;-61
2021/10/22 03:24:56;;;;;;;;;;;;;;;-144.51;100.00;69251.94;4883165;29;19915;-61
2021/10/22 03:27:42;;;;;;;;;;;;;;;-144.51;100.00;69251.94;4883400;29;20466;-61
2021/10/22 03:30:27;;;;;;;;;;;;;;;-144.51;100.00;69251.94;4882822;29;19915;-61
2021/10/22 03:33:11;;;;;;;;;;;;;;;-144.51;100.00;69251.94;4883117;29;19916;-61
2021/10/22 03:35:56;;;;;;;;;;;;;;;-144.51;100.00;69251.94;4883300;29;19916;-61
2021/10/22 03:38:43;;;;;;;;;;;;;;;-144.51;100.00;69251.94;4887329;29;19920;-61
2021/10/22 03:41:28;;;;;;;;;;;;;;;-144.51;100.00;69251.94;4882879;29;19920;-61
2021/10/22 03:44:12;;;;;;;;;;;;;;;-144.51;100.00;69251.94;4882432;29;20296;-61
2021/10/22 03:46:58;;;;;;;;;;;;;;;-144.51;100.00;69251.94;4882813;29;19916;-61
2021/10/22 03:49:43;;;;;;;;;;;;;;;-144.51;100.00;69251.94;4884526;29;19924;-61
2021/10/22 03:52:27;;;;;;;;;;;;;;;-144.51;100.00;69251.94;4864172;29;19916;-61
2021/10/22 03:55:13;;;;;;;;;;;;;;;-144.51;100.00;69251.94;4863405;29;19916;-60
2021/10/22 03:57:57;;;;;;;;;;;;;;;-144.51;100.00;69251.94;4861570;29;19916;-61
2021/10/22 04:00:42;;;;;;;;;;;;;;;-144.51;100.00;69251.94;4862263;29;19916;-62
2021/10/22 04:03:27;;;;;;;;;;;;;;;-144.51;100.00;69251.94;4863300;29;20369;-61
2021/10/22 04:06:11;;;;;;;;;;;;;;;-144.51;100.00;69251.94;4868749;29;19916;-61
2021/10/22 04:08:56;;;;;;;;;;;;;;;-144.51;100.00;69251.94;4863788;29;19916;-61
2021/10/22 04:11:40;;;;;;;;;;;;;;;-144.51;100.00;69251.94;4863880;29;19924;-61
2021/10/22 04:14:25;;;;;;;;;;;;;;;-144.51;100.00;69251.94;4864159;29;19916;-61
2021/10/22 04:17:09;;;;;;;;;;;;;;;-144.51;100.00;69251.94;4883561;29;19916;-61
2021/10/22 04:19:54;;;;;;;;;;;;;;;-144.51;100.00;69251.94;4885339;29;20395;-61
2021/10/22 04:22:39;;;;;;;;;;;;;;;-144.51;100.00;69251.94;4885374;29;19920;-61
2021/10/22 04:25:24;;;;;;;;;;;;;;;-144.51;100.00;69251.94;4884681;29;19916;-61
2021/10/22 04:28:08;;;;;;;;;;;;;;;-144.51;100.00;69251.94;4885335;29;19945;-61
2021/10/22 04:30:53;;;;;;;;;;;;;;;-144.51;100.00;69251.94;4883621;29;19916;-61
2021/10/22 04:33:39;;;;;;;;;;;;;;;-144.51;100.00;69251.94;4882825;29;19915;-61
2021/10/22 04:36:25;;;;;;;;;;;;;;;-144.51;100.00;69251.94;4894565;23;20363;31
2021/10/22 04:42:12;;;;;;;;;;;;;;;-144.51;100.00;69251.94;4880697;29;19920;-64
2021/10/22 04:44:57;;;;;;;;;;;;;;;-144.51;100.00;69251.94;4885817;29;19916;-63
2021/10/22 04:47:41;;;;;;;;;;;;;;;-144.51;100.00;69251.94;4880767;29;19917;-63
2021/10/22 04:50:27;;;;;;;;;;;;;;;-144.51;100.00;69251.94;4880444;29;19916;-64
2021/10/22 04:53:11;;;;;;;;;;;;;;;-144.51;100.00;69251.94;4880553;29;19916;-65
2021/10/22 04:55:56;;;;;;;;;;;;;;;-144.51;100.00;69251.94;4880392;29;19915;-65
2021/10/22 04:58:40;;;;;;;;;;;;;;;-144.51;100.00;69251.94;4880511;29;20277;-64
2021/10/22 05:01:25;;;;;;;;;;;;;;;-144.51;100.00;69251.94;4879415;29;19924;-64
2021/10/22 05:04:10;;;;;;;;;;;;;;;-144.51;100.00;69251.94;4884169;29;19916;-65
2021/10/22 05:06:54;;;;;;;;;;;;;;;-144.51;100.00;69251.94;4880007;29;20379;-65
2021/10/22 05:09:38;;;;;;;;;;;;;;;-144.51;100.00;69251.94;4880118;29;19916;-66
2021/10/22 05:12:24;;;;;;;;;;;;;;;-144.51;100.00;69251.94;4872446;29;19916;-67
2021/10/22 05:15:09;;;;;;;;;;;;;;;-144.51;100.00;69251.94;4861519;29;19916;-66
2021/10/22 05:17:54;;;;;;;;;;;;;;;-144.51;100.00;69251.94;4860519;29;19916;-64
2021/10/22 05:20:39;;;;;;;;;;;;;;;-144.51;100.00;69251.94;4861066;29;19916;-65
2021/10/22 05:23:24;;;;;;;;;;;;;;;-144.51;100.00;69251.94;4860600;29;19920;-65
2021/10/22 05:26:08;;;;;;;;;;;;;;;-144.51;100.00;69251.94;4866161;29;20301;-65
2021/10/22 05:28:53;;;;;;;;;;;;;;;-144.51;100.00;69251.94;4861315;29;19915;-66
2021/10/22 05:31:37;;;;;;;;;;;;;;;-144.51;100.00;69251.94;4861368;29;19916;-65
2021/10/22 05:34:22;;;;;;;;;;;;;;;-144.51;100.00;69251.94;4861184;29;20376;-66
2021/10/22 05:37:06;;;;;;;;;;;;;;;-144.51;100.00;69251.94;4861160;29;19916;-65
2021/10/22 05:39:51;;;;;;;;;;;;;;;-144.51;100.00;69251.94;4861495;29;20285;-66
2021/10/22 05:42:36;;;;;;;;;;;;;;;-144.51;100.00;69251.94;4865225;29;20393;-66
2021/10/22 05:45:21;;;;;;;;;;;;;;;-144.51;100.00;69251.94;4872313;29;19916;-64
2021/10/22 05:48:05;;;;;;;;;;;;;;;-144.51;100.00;69251.94;4860290;29;19920;-64
2021/10/22 05:50:49;;;;;;;;;;;;;;;-144.51;100.00;69251.94;4861121;29;19916;-65
2021/10/22 05:53:33;;;;;;;;;;;;;;;-144.51;100.00;69251.94;4860927;29;19916;-66
2021/10/22 05:56:18;;;;;;;;;;;;;;;-144.51;100.00;69251.94;4861040;29;19916;-65
2021/10/22 05:59:03;;;;;;;;;;;;;;;-144.51;100.00;69251.94;4860885;29;19916;-64
2021/10/22 06:01:48;;;;;;;;;;;;;;;-144.51;100.00;69251.94;4860774;29;19920;-66
2021/10/22 06:04:33;;;;;;;;;;;;;;;-144.51;100.00;69251.94;4860770;29;19916;-65
2021/10/22 06:07:18;;;;;;;;;;;;;;;-144.51;100.00;69251.94;4878652;29;19915;-63
2021/10/22 06:10:02;;;;;;;;;;;;;;;-144.51;100.00;69251.94;4873942;29;19916;-64
2021/10/22 06:12:47;;;;;;;;;;;;;;;-144.51;100.00;69251.94;4897872;29;19915;-65
2021/10/22 06:15:31;;;;;;;;;;;;;;;-144.51;100.00;69251.94;4897747;29;19916;-64
2021/10/22 06:18:18;;;;;;;;;;;;;;;-144.51;100.00;69251.94;4903145;29;20368;-65
2021/10/22 06:21:05;;;;;;;;;;;;;;;-144.51;100.00;69251.94;4897676;29;19916;-65
2021/10/22 06:24:02;;;;;;;;;;;;;;;-144.51;100.00;69251.94;4896966;29;19915;-64
2021/10/22 06:26:47;;;;;;;;;;;;;;;-144.51;100.00;69251.94;4897783;29;19915;-65
2021/10/22 06:29:33;;;;;;;;;;;;;;;-144.51;100.00;69251.94;4896790;29;19919;-65
2021/10/22 06:32:18;;;;;;;;;;;;;;;-144.51;100.00;69251.94;4897813;29;20290;-65
2021/10/22 06:35:03;;;;;;;;;;;;;;;-144.51;100.00;69251.94;4897664;29;19915;-65
2021/10/22 06:37:51;;;;;;;;;;;;;;;-144.51;100.00;69251.94;4897476;29;19915;-65
2021/10/22 06:40:35;;;;;;;;;;;;;;;-144.51;100.00;69251.94;4897785;29;20383;-65
2021/10/22 06:43:20;;;;;;;;;;;;;;;-144.51;100.00;69251.94;4897451;29;20260;-64
2021/10/22 06:46:05;;;;;;;;;;;;;;;-144.51;100.00;69251.94;4897585;29;19915;-65
2021/10/22 06:48:51;;;;;;;;;;;;;;;-144.51;100.00;69251.94;4897487;29;19916;-65
2021/10/22 06:51:36;;;;;;;;;;;;;;;-144.51;100.00;69251.94;4897507;29;19920;-65
2021/10/22 06:54:20;;;;;;;;;;;;;;;-144.51;100.00;69251.94;4897441;29;20284;-65
2021/10/22 06:57:05;;;;;;;;;;;;;;;-144.51;100.00;69251.94;4897343;29;20280;-65
2021/10/22 06:59:49;;;;;;;;;;;;;;;-144.51;100.00;69251.94;4896385;29;19915;-65
2021/10/22 07:02:39;;;;;;;;;;;;;;;-144.51;100.00;69251.94;4897420;29;19920;-65
2021/10/22 07:08:21;;;;;;;;;;;;;;;-144.51;100.00;69251.94;4897301;29;19916;-65
2021/10/22 07:11:06;;;;;;;;;;;;;;;-144.51;100.00;69251.94;4897224;29;19919;-65
2021/10/22 07:13:53;;;;;;;;;;;;;;;-144.51;100.00;69251.94;4897146;29;19916;-64
2021/10/22 07:16:42;;;;;;;;;;;;;;;-144.51;100.00;69251.94;4897270;29;20363;-65
2021/10/22 07:19:26;;;;;;;;;;;;;;;-144.51;100.00;69251.94;4897159;29;20371;-65
2021/10/22 07:22:14;;;;;;;;;;;;;;;-144.51;100.00;69251.94;4897190;29;19919;-65
2021/10/22 07:24:59;;;;;;;;;;;;;;;-144.51;100.00;69251.94;4896119;29;19915;-64
2021/10/22 07:27:44;;;;;;;;;;;;;;;-144.51;100.00;69251.94;4897148;29;19916;-64
2021/10/22 07:30:29;;;;;;;;;;;;;;;-144.51;100.00;69251.94;4896032;29;19915;-66
2021/10/22 07:33:17;;;;;;;;;;;;;;;-144.51;100.00;69251.94;4896145;29;19915;-65
2021/10/22 07:36:01;;;;;;;;;;;;;;;-144.51;100.00;69251.94;4899683;29;19916;-65
2021/10/22 07:38:45;;;;;;;;;;;;;;;-144.51;100.00;69251.94;4900595;29;19916;-65
2021/10/22 07:41:30;;;;;;;;;;;;;;;-144.51;100.00;69251.94;4899594;29;19920;-65
2021/10/22 07:44:15;;;;;;;;;;;;;;;-144.51;100.00;69251.94;4906955;29;19916;-66
2021/10/22 07:47:00;;;;;;;;;;;;;;;-144.51;100.00;69251.94;4900618;29;19915;-65
2021/10/22 07:49:47;;;;;;;;;;;;;;;-144.51;100.00;69251.94;4902087;29;20380;-66
2021/10/22 07:52:35;;;;;;;;;;;;;;;-144.51;100.00;69251.94;4899240;29;20268;-65
2021/10/22 07:55:20;;;;;;;;;;;;;;;-144.51;100.00;69251.94;4863131;29;19916;-65
2021/10/22 07:58:04;;;;;;;;;;;;;;;-144.51;100.00;69251.94;4862030;29;20269;-65
2021/10/22 08:00:48;;;;;;;;;;;;;;;-144.51;100.00;69251.94;4873715;29;19915;-64
2021/10/22 08:03:34;;;;;;;;;;;;;;;-144.51;100.00;69251.94;4881483;29;19920;-65
2021/10/22 08:06:18;;;;;;;;;;;;;;;-144.51;100.00;69251.94;4881458;29;19915;-64
2021/10/22 08:09:03;;;;;;;;;;;;;;;-144.51;100.00;69251.94;4880573;29;20368;-65
2021/10/22 08:11:48;;;;;;;;;;;;;;;-144.51;100.00;69251.94;4881227;29;19915;-66
2021/10/22 08:14:32;;;;;;;;;;;;;;;-144.51;100.00;69251.94;4881209;29;19915;-65
2021/10/22 08:17:21;;;;;;;;;;;;;;;-144.51;100.00;69251.94;4881154;29;19915;-65
2021/10/22 08:20:09;;;;;;;;;;;;;;;-144.51;100.00;69251.94;4880264;29;19916;-66
2021/10/22 08:22:54;;;;;;;;;;;;;;;-144.51;100.00;69251.94;4881119;29;19920;-65
2021/10/22 08:25:39;;;;;;;;;;;;;;;-144.51;100.00;69251.94;4881048;29;20277;-65
2021/10/22 08:28:23;;;;;;;;;;;;;;;-144.51;100.00;69251.94;4879951;29;19920;-66
2021/10/22 08:31:08;;;;;;;;;;;;;;;-144.51;100.00;69251.94;4880254;29;19920;-65
2021/10/22 08:33:53;;;;;;;;;;;;;;;-144.51;100.00;69251.94;4880964;29;19915;-65
2021/10/22 08:36:37;;;;;;;;;;;;;;;-144.51;100.00;69251.94;4880776;29;19915;-65
2021/10/22 08:39:22;;;;;;;;;;;;;;;-144.51;100.00;69251.94;4880798;29;19916;-65
2021/10/22 08:42:06;;;;;;;;;;;;;;;-144.51;100.00;69251.94;4885944;29;19924;-65
2021/10/22 08:44:52;;;;;;;;;;;;;;;-144.51;100.00;69251.94;4880785;29;19916;-66
2021/10/22 08:47:37;;;;;;;;;;;;;;;-144.51;100.00;69251.94;4893483;29;19919;-66
2021/10/22 08:50:21;;;;;;;;;;;;;;;-144.51;100.00;69251.94;4899558;29;20186;-64
2021/10/22 08:53:06;;;;;;;;;;;;;;;-144.51;100.00;69251.94;4899391;29;19915;-65
2021/10/22 08:55:51;;;;;;;;;;;;;;;-144.51;100.00;69251.94;4899113;29;19915;-65
2021/10/22 08:58:35;;;;;;;;;;;;;;;-144.51;100.00;69251.94;4899327;29;19912;-66
2021/10/22 09:01:21;;;;;;;;;;;;;;;-144.51;100.00;69251.94;4899319;29;20287;-66
2021/10/22 09:04:27;;;;;;;;;;;;;;;-144.51;100.00;69251.94;4904251;29;19920;-66
2021/10/22 09:07:16;;;;;;;;;;;;;;;-144.51;100.00;69251.94;4899192;29;19911;-66
2021/10/22 09:10:06;;;;;;;;;;;;;;;-144.51;100.00;69251.94;4897893;29;19915;-64
2021/10/22 09:12:52;;;;;;;;;;;;;;;-144.51;100.00;69251.94;4899056;29;19915;-66
2021/10/22 09:15:42;;;;;;;;;;;;;;;-144.51;100.00;69251.94;4898994;29;20375;-64
2021/10/22 09:18:29;;;;;;;;;;;;;;;-144.51;100.00;69251.94;4898859;29;20334;-64
2021/10/22 09:21:22;;;;;;;;;;;;;;;-144.51;100.00;69251.94;4898968;29;19911;-67
2021/10/22 09:24:17;;;;;;;;;;;;;;;-144.51;100.00;69251.94;4904197;29;19923;-66
2021/10/22 09:27:03;;;;;;;;;;;;;;;-144.51;100.00;69251.94;4899143;29;19915;-67
2021/10/22 09:29:48;;;;;;;;;;;;;;;-144.51;100.00;69251.94;4900436;29;19916;-67
2021/10/22 09:32:33;;;;;;;;;;;;;;;-144.51;100.00;69251.94;4897747;29;19915;-66
2021/10/22 09:35:32;;;;;;;;;;;;;;;-144.51;100.00;69251.94;4898683;29;20260;-66
2021/10/22 09:38:18;;;;;;;;;;;;;;;-144.51;100.00;69251.94;4897808;29;20391;-65
2021/10/22 09:41:04;;;;;;;;;;;;;;;-144.51;100.00;69251.94;4898622;29;19915;-65
2021/10/22 09:43:49;;;;;;;;;;;;;;;-144.51;100.00;69251.94;4898424;29;19920;-65
2021/10/22 09:46:34;;;;;;;;;;;;;;;-144.51;100.00;69251.94;4898229;29;19916;-65
2021/10/22 09:49:22;;;;;;;;;;;;;;;-144.51;100.00;69251.94;4898041;29;19916;-66
2021/10/22 09:52:21;;;;;;;;;;;;;;;-144.51;100.00;69251.94;4890362;29;20303;-64
2021/10/22 09:55:09;;;;;;;;;;;;;;;-144.51;100.00;69251.94;4898416;29;19919;-64
2021/10/22 09:58:03;;;;;;;;;;;;;;;-144.51;100.00;69251.94;4897712;29;19915;-66
2021/10/22 10:00:48;;;;;;;;;;;;;;;-144.51;100.00;69251.94;4898159;29;20375;-67
2021/10/22 10:03:34;;;;;;;;;;;;;;;-144.51;100.00;69251.94;4897021;29;19919;-67
2021/10/22 10:06:18;;;;;;;;;;;;;;;-144.51;100.00;69251.94;4898039;29;19916;-66
2021/10/22 10:09:04;;;;;;;;;;;;;;;-144.51;100.00;69251.94;4897924;29;19915;-65
2021/10/22 10:11:49;;;;;;;;;;;;;;;-144.51;100.00;69251.94;4897942;29;20364;-65
2021/10/22 10:14:33;;;;;;;;;;;;;;;-144.51;100.00;69251.94;4897995;29;19915;-65
2021/10/22 10:17:18;;;;;;;;;;;;;;;-144.51;100.00;69251.94;4903200;29;19915;-64
2021/10/22 10:20:03;;;;;;;;;;;;;;;-144.51;100.00;69251.94;4898056;29;19915;-65
2021/10/22 10:22:48;;;;;;;;;;;;;;;-144.51;100.00;69251.94;4903223;29;20287;-65
2021/10/22 10:25:33;;;;;;;;;;;;;;;-144.51;100.00;69251.94;4897766;29;19915;-65
2021/10/22 10:28:37;;;;;;;;;;;;;;;-144.51;100.00;69251.94;4901102;29;19915;-67
2021/10/22 10:31:30;;;;;;;;;;;;;;;-144.51;100.00;69251.94;4897987;29;19915;-67
2021/10/22 10:34:30;;;;;;;;;;;;;;;-144.51;100.00;69251.94;4897682;29;19915;-65
2021/10/22 10:37:23;;;;;;;;;;;;;;;-144.51;100.00;69251.94;4911812;23;19925;-62
2021/10/22 10:40:25;;;;;;;;;;;;;;;-144.51;100.00;69251.94;4887603;29;20375;-62
2021/10/22 10:43:21;;;;;;;;;;;;;;;-144.51;100.00;69251.94;4897549;29;19919;-62
2021/10/22 10:46:05;;;;;;;;;;;;;;;-144.51;100.00;69251.94;4900200;29;19915;-62
2021/10/22 10:48:49;;;;;;;;;;;;;;;-144.51;100.00;69251.94;4892986;29;20291;-62
2021/10/22 10:51:34;;;;;;;;;;;;;;;-144.51;100.00;69251.94;4884086;29;19920;-64
2021/10/22 10:54:26;;;;;;;;;;;;;;;-144.51;100.00;69251.94;4891873;29;19915;-63
2021/10/22 10:57:24;;;;;;;;;;;;;;;-144.51;100.00;69251.94;4897988;29;19915;-63
2021/10/22 11:00:15;;;;;;;;;;;;;;;-144.51;100.00;69251.94;4901313;29;19915;-62
2021/10/22 11:03:03;;;;;;;;;;;;;;;-144.51;100.00;69251.94;4897903;29;19923;-63
2021/10/22 11:05:55;;;;;;;;;;;;;;;-144.51;100.00;69251.94;4894490;29;19915;-63
2021/10/22 11:08:41;;;;;;;;;;;;;;;-144.51;100.00;69251.94;4896912;29;19915;-63
2021/10/22 11:11:27;;;;;;;;;;;;;;;-144.51;100.00;69251.94;4903895;29;19916;-63
2021/10/22 11:14:12;;;;;;;;;;;;;;;-144.51;100.00;69251.94;4905006;29;19915;-63
2021/10/22 11:16:58;;;;;;;;;;;;;;;-144.51;100.00;69251.94;4900827;29;20292;-63
2021/10/22 11:19:45;;;;;;;;;;;;;;;-144.51;100.00;69251.94;4901078;29;19915;-63
2021/10/22 11:22:29;;;;;;;;;;;;;;;-144.51;100.00;69251.94;4900930;29;19920;-63
2021/10/22 11:25:17;;;;;;;;;;;;;;;-144.51;100.00;69251.94;4899415;29;19916;-63
2021/10/22 11:28:06;;;;;;;;;;;;;;;-144.51;100.00;69251.94;4894486;29;19915;-63
2021/10/22 11:30:54;;;;;;;;;;;;;;;-144.51;100.00;69251.94;4899894;29;19919;-63
2021/10/22 11:33:45;;;;;;;;;;;;;;;-144.51;100.00;69251.94;4904660;29;19915;-63
2021/10/22 11:36:30;;;;;;;;;;;;;;;-144.51;100.00;69251.94;4905094;29;20295;-63
2021/10/22 11:39:18;;;;;;;;;;;;;;;-144.51;100.00;69251.94;4907326;29;19915;-63
2021/10/22 11:42:10;;;;;;;;;;;;;;;-144.51;100.00;69251.94;4911344;29;19915;-63
2021/10/22 11:44:59;;;;;;;;;;;;;;;-144.51;100.00;69251.94;4903457;29;19916;-72
2021/10/22 11:47:46;;;;;;;;;;;;;;;-144.51;100.00;69251.94;4907720;29;19915;-71
2021/10/22 11:50:32;;;;;;;;;;;;;;;-144.51;100.00;69251.94;4892440;29;19915;-68
2021/10/22 11:53:23;;;;;;;;;;;;;;;-144.51;100.00;69251.94;4899565;29;19915;-69
2021/10/22 11:56:08;;;;;;;;;;;;;;;-144.51;100.00;69251.94;4903204;29;19919;-68
2021/10/22 11:58:52;;;;;;;;;;;;;;;-144.51;100.00;69251.94;4901392;29;19916;-67
2021/10/22 12:01:40;;;;;;;;;;;;;;;-144.51;100.00;69251.94;4902522;29;19915;-73
2021/10/22 12:04:26;;;;;;;;;;;;;;;-144.51;100.00;69251.94;4904203;29;19919;-66
2021/10/22 12:07:11;;;;;;;;;;;;;;;-144.51;100.00;69251.94;4900305;29;19915;-63
2021/10/22 12:09:56;;;;;;;;;;;;;;;-144.51;100.00;69251.94;4892524;29;19915;-75
2021/10/22 12:12:47;;;;;;;;;;;;;;;-144.51;100.00;69251.94;4899057;29;20284;-68
2021/10/22 12:15:32;;;;;;;;;;;;;;;-144.51;100.00;69251.94;4889697;29;20294;-67
2021/10/22 12:18:17;;;;;;;;;;;;;;;-144.51;100.00;69251.94;4886784;29;19915;-68
2021/10/22 12:21:02;;;;;;;;;;;;;;;-144.51;100.00;69251.94;4891060;29;19915;-68
2021/10/22 12:23:53;;;;;;;;;;;;;;;-144.51;100.00;69251.94;4897565;29;19920;-64
2021/10/22 12:26:38;;;;;;;;;;;;;;;-144.51;100.00;69251.94;4892295;29;19920;-64
2021/10/22 12:29:23;;;;;;;;;;;;;;;-144.51;100.00;69251.94;4891612;29;19915;-64
2021/10/22 12:32:07;;;;;;;;;;;;;;;-144.51;100.00;69251.94;4898761;29;20407;-64
2021/10/22 12:34:52;;;;;;;;;;;;;;;-144.51;100.00;69251.94;4889175;29;19915;-64
2021/10/22 12:37:41;;;;;;;;;;;;;;;-144.51;100.00;69251.94;4889802;29;19915;-62
2021/10/22 12:40:26;;;;;;;;;;;;;;;-144.51;100.00;69251.94;4897944;29;20391;-62
2021/10/22 12:43:29;;;;;;;;;;;;;;;-144.51;100.00;69251.94;4897632;29;19919;-62
2021/10/22 12:46:14;;;;;;;;;;;;;;;-144.51;100.00;69251.94;4903791;29;19915;-69
2021/10/22 12:49:06;;;;;;;;;;;;;;;-144.51;100.00;69251.94;4897899;29;19915;-69
2021/10/22 12:51:58;;;;;;;;;;;;;;;-144.51;100.00;69251.94;4899457;29;20367;-70
2021/10/22 12:54:46;;;;;;;;;;;;;;;-144.51;100.00;69251.94;4920962;23;19923;-82
2021/10/22 12:57:31;;;;;;;;;;;;;;;-144.51;100.00;69251.94;4912061;29;19920;-82
2021/10/22 13:00:18;;;;;;;;;;;;;;;-144.51;100.00;69251.94;4912509;29;19916;-82
2021/10/22 13:03:03;;;;;;;;;;;;;;;-144.51;100.00;69251.94;4903299;29;19919;-81
2021/10/22 13:05:48;;;;;;;;;;;;;;;-144.51;100.00;69251.94;4902487;29;19917;-82
2021/10/22 13:08:48;;;;;;;;;;;;;;;-144.51;100.00;69251.94;4902990;29;19917;-80
2021/10/22 13:11:45;;;;;;;;;;;;;;;-144.51;100.00;69251.94;4901438;29;19916;-81
2021/10/22 13:20:39;;;;;;;;;;;;;;;-144.51;100.00;69251.94;4900970;29;20380;-82
2021/10/22 13:23:24;;;;;;;;;;;;;;;-144.51;100.00;69251.94;4903220;29;19919;-84
2021/10/22 13:26:08;;;;;;;;;;;;;;;-144.51;100.00;69251.94;4900274;29;20391;-82
2021/10/22 13:28:53;;;;;;;;;;;;;;;-144.51;100.00;69251.94;4917440;29;19916;-82
2021/10/22 13:31:44;;;;;;;;;;;;;;;-144.51;100.00;69251.94;4919218;29;19916;-82
2021/10/22 13:34:29;;;;;;;;;;;;;;;-144.51;100.00;69251.94;4903805;29;19915;-83
2021/10/22 13:37:13;;;;;;;;;;;;;;;-144.51;100.00;69251.94;4907004;29;19915;-82
2021/10/22 13:39:58;;;;;;;;;;;;;;;-144.51;100.00;69251.94;4904072;29;19915;-83
2021/10/22 13:42:42;;;;;;;;;;;;;;;-144.51;100.00;69251.94;4894187;29;19920;-82
2021/10/22 13:45:27;;;;;;;;;;;;;;;-144.51;100.00;69251.94;4903102;29;20368;-82
2021/10/22 13:48:11;;;;;;;;;;;;;;;-144.51;100.00;69251.94;4913989;29;19919;-82
2021/10/22 13:50:56;;;;;;;;;;;;;;;-144.51;100.00;69251.94;4895821;29;20381;-82
2021/10/22 13:53:47;;;;;;;;;;;;;;;-144.51;100.00;69251.94;4892565;29;20442;-83
2021/10/22 13:56:31;;;;;;;;;;;;;;;-144.51;100.00;69251.94;4900972;29;19916;-82
2021/10/22 13:59:16;;;;;;;;;;;;;;;-144.51;100.00;69251.94;4906902;29;20396;-82
2021/10/22 14:02:01;;;;;;;;;;;;;;;-144.51;100.00;69251.94;4903512;29;19915;-83
2021/10/22 14:04:46;;;;;;;;;;;;;;;-144.51;100.00;69251.94;4892766;29;19919;-82